sensor_id;sensor_type;location;lat;lon;timestamp;P1;durP1;ratioP1;P2;durP2;ratioP2
25345;SDS011;13300;51.032;3.710;2022-12-29T00:02:23;1.55;;;1.42;;
25345;SDS011;13300;51.032;3.710;2022-12-29T00:04:54;1.30;;;1.20;;
25345;SDS011;13300;51.032;3.710;2022-12-29T00:07:31;1.17;;;1.08;;
25345;SDS011;13300;51.032;3.710;2022-12-29T00:09:59;1.58;;;1.00;;
25345;SDS011;13300;51.032;3.710;2022-12-29T00:12:26;1.08;;;0.90;;
25345;SDS011;13300;51.032;3.710;2022-12-29T00:15:23;1.85;;;1.10;;
25345;SDS011;13300;51.032;3.710;2022-12-29T00:18:02;2.85;;;1.23;;
25345;SDS011;13300;51.032;3.710;2022-12-29T00:20:35;1.40;;;0.82;;
25345;SDS011;13300;51.032;3.710;2022-12-29T00:23:25;2.65;;;0.93;;
25345;SDS011;13300;51.032;3.710;2022-12-29T00:26:37;1.05;;;0.80;;
25345;SDS011;13300;51.032;3.710;2022-12-29T00:29:52;0.60;;;0.60;;
25345;SDS011;13300;51.032;3.710;2022-12-29T00:32:59;2.78;;;0.90;;
25345;SDS011;13300;51.032;3.710;2022-12-29T00:39:31;2.05;;;1.00;;
25345;SDS011;13300;51.032;3.710;2022-12-29T00:42:34;1.52;;;0.80;;
25345;SDS011;13300;51.032;3.710;2022-12-29T00:45:23;2.25;;;0.80;;
25345;SDS011;13300;51.032;3.710;2022-12-29T00:48:52;2.75;;;0.85;;
25345;SDS011;13300;51.032;3.710;2022-12-29T00:55:43;3.40;;;0.95;;
25345;SDS011;13300;51.032;3.710;2022-12-29T00:58:12;4.00;;;0.90;;
25345;SDS011;13300;51.032;3.710;2022-12-29T01:00:44;7.18;;;1.10;;
25345;SDS011;13300;51.032;3.710;2022-12-29T01:07:05;3.67;;;0.93;;
25345;SDS011;13300;51.032;3.710;2022-12-29T01:09:51;4.05;;;1.02;;
25345;SDS011;13300;51.032;3.710;2022-12-29T01:12:58;5.32;;;1.02;;
25345;SDS011;13300;51.032;3.710;2022-12-29T01:15:57;4.25;;;0.90;;
25345;SDS011;13300;51.032;3.710;2022-12-29T01:18:46;3.70;;;1.20;;
25345;SDS011;13300;51.032;3.710;2022-12-29T01:24:46;1.85;;;0.77;;
25345;SDS011;13300;51.032;3.710;2022-12-29T01:27:52;6.22;;;1.20;;
25345;SDS011;13300;51.032;3.710;2022-12-29T01:30:44;4.70;;;1.20;;
25345;SDS011;13300;51.032;3.710;2022-12-29T01:33:36;5.75;;;1.13;;
25345;SDS011;13300;51.032;3.710;2022-12-29T01:36:46;3.85;;;1.27;;
25345;SDS011;13300;51.032;3.710;2022-12-29T01:40:21;4.25;;;1.08;;
25345;SDS011;13300;51.032;3.710;2022-12-29T01:43:52;7.75;;;1.25;;
25345;SDS011;13300;51.032;3.710;2022-12-29T01:46:54;5.35;;;0.93;;
25345;SDS011;13300;51.032;3.710;2022-12-29T01:50:18;7.88;;;1.30;;
25345;SDS011;13300;51.032;3.710;2022-12-29T01:53:03;7.30;;;1.40;;
25345;SDS011;13300;51.032;3.710;2022-12-29T01:56:35;6.43;;;1.52;;
25345;SDS011;13300;51.032;3.710;2022-12-29T01:59:19;4.05;;;0.85;;
25345;SDS011;13300;51.032;3.710;2022-12-29T02:01:53;2.85;;;0.90;;
25345;SDS011;13300;51.032;3.710;2022-12-29T02:05:32;8.27;;;1.40;;
25345;SDS011;13300;51.032;3.710;2022-12-29T02:08:55;4.70;;;1.17;;
25345;SDS011;13300;51.032;3.710;2022-12-29T02:11:46;5.03;;;1.35;;
25345;SDS011;13300;51.032;3.710;2022-12-29T02:14:13;6.88;;;1.27;;
25345;SDS011;13300;51.032;3.710;2022-12-29T02:34:10;6.63;;;1.30;;
25345;SDS011;13300;51.032;3.710;2022-12-29T02:37:34;7.05;;;1.35;;
25345;SDS011;13300;51.032;3.710;2022-12-29T02:47:56;3.60;;;1.13;;
25345;SDS011;13300;51.032;3.710;2022-12-29T02:54:22;4.25;;;1.17;;
25345;SDS011;13300;51.032;3.710;2022-12-29T02:57:37;7.88;;;1.35;;
25345;SDS011;13300;51.032;3.710;2022-12-29T03:11:16;6.03;;;1.30;;
25345;SDS011;13300;51.032;3.710;2022-12-29T03:14:27;3.22;;;1.08;;
25345;SDS011;13300;51.032;3.710;2022-12-29T03:17:48;7.53;;;1.50;;
25345;SDS011;13300;51.032;3.710;2022-12-29T03:28:30;7.10;;;1.27;;
25345;SDS011;13300;51.032;3.710;2022-12-29T03:31:37;5.50;;;1.10;;
25345;SDS011;13300;51.032;3.710;2022-12-29T03:35:13;9.98;;;1.45;;
25345;SDS011;13300;51.032;3.710;2022-12-29T03:41:56;8.88;;;1.33;;
25345;SDS011;13300;51.032;3.710;2022-12-29T03:45:13;9.00;;;1.38;;
25345;SDS011;13300;51.032;3.710;2022-12-29T03:48:50;11.07;;;1.70;;
25345;SDS011;13300;51.032;3.710;2022-12-29T03:55:30;8.15;;;1.50;;
25345;SDS011;13300;51.032;3.710;2022-12-29T03:59:07;10.35;;;1.50;;
25345;SDS011;13300;51.032;3.710;2022-12-29T04:02:07;7.18;;;1.23;;
25345;SDS011;13300;51.032;3.710;2022-12-29T04:05:29;7.43;;;1.38;;
25345;SDS011;13300;51.032;3.710;2022-12-29T04:09:00;9.10;;;1.63;;
25345;SDS011;13300;51.032;3.710;2022-12-29T04:12:06;9.48;;;2.00;;
25345;SDS011;13300;51.032;3.710;2022-12-29T04:14:53;10.10;;;1.70;;
25345;SDS011;13300;51.032;3.710;2022-12-29T04:18:08;5.55;;;1.20;;
25345;SDS011;13300;51.032;3.710;2022-12-29T04:21:41;9.48;;;1.67;;
25345;SDS011;13300;51.032;3.710;2022-12-29T04:24:55;6.38;;;1.40;;
25345;SDS011;13300;51.032;3.710;2022-12-29T04:28:20;8.50;;;1.60;;
25345;SDS011;13300;51.032;3.710;2022-12-29T04:31:42;9.45;;;1.65;;
25345;SDS011;13300;51.032;3.710;2022-12-29T04:35:13;7.35;;;1.67;;
25345;SDS011;13300;51.032;3.710;2022-12-29T04:38:26;10.25;;;1.30;;
25345;SDS011;13300;51.032;3.710;2022-12-29T04:41:50;7.95;;;1.30;;
25345;SDS011;13300;51.032;3.710;2022-12-29T04:45:06;10.77;;;1.67;;
25345;SDS011;13300;51.032;3.710;2022-12-29T04:48:31;6.97;;;1.48;;
25345;SDS011;13300;51.032;3.710;2022-12-29T04:51:56;8.98;;;1.70;;
25345;SDS011;13300;51.032;3.710;2022-12-29T04:55:17;4.95;;;1.00;;
25345;SDS011;13300;51.032;3.710;2022-12-29T04:58:41;8.90;;;1.45;;
25345;SDS011;13300;51.032;3.710;2022-12-29T05:01:34;3.50;;;1.10;;
25345;SDS011;13300;51.032;3.710;2022-12-29T05:05:04;6.38;;;1.35;;
25345;SDS011;13300;51.032;3.710;2022-12-29T05:07:31;6.22;;;1.50;;
25345;SDS011;13300;51.032;3.710;2022-12-29T05:10:06;8.50;;;1.70;;
25345;SDS011;13300;51.032;3.710;2022-12-29T05:12:39;10.32;;;1.63;;
25345;SDS011;13300;51.032;3.710;2022-12-29T05:16:19;5.45;;;1.17;;
25345;SDS011;13300;51.032;3.710;2022-12-29T05:19:19;7.03;;;1.20;;
25345;SDS011;13300;51.032;3.710;2022-12-29T05:22:16;6.30;;;1.38;;
25345;SDS011;13300;51.032;3.710;2022-12-29T05:24:59;7.90;;;1.38;;
25345;SDS011;13300;51.032;3.710;2022-12-29T05:28:00;8.60;;;1.52;;
25345;SDS011;13300;51.032;3.710;2022-12-29T05:30:30;10.80;;;1.75;;
25345;SDS011;13300;51.032;3.710;2022-12-29T05:33:07;7.85;;;1.27;;
25345;SDS011;13300;51.032;3.710;2022-12-29T05:35:44;10.07;;;1.45;;
25345;SDS011;13300;51.032;3.710;2022-12-29T05:38:11;8.38;;;1.67;;
25345;SDS011;13300;51.032;3.710;2022-12-29T05:40:38;9.27;;;1.75;;
25345;SDS011;13300;51.032;3.710;2022-12-29T05:43:12;11.15;;;1.58;;
25345;SDS011;13300;51.032;3.710;2022-12-29T05:45:52;8.43;;;1.95;;
25345;SDS011;13300;51.032;3.710;2022-12-29T05:48:28;4.70;;;1.35;;
25345;SDS011;13300;51.032;3.710;2022-12-29T05:50:59;7.15;;;1.40;;
25345;SDS011;13300;51.032;3.710;2022-12-29T05:53:26;8.57;;;1.90;;
25345;SDS011;13300;51.032;3.710;2022-12-29T05:55:55;10.50;;;1.70;;
25345;SDS011;13300;51.032;3.710;2022-12-29T05:58:35;7.60;;;1.60;;
25345;SDS011;13300;51.032;3.710;2022-12-29T06:01:05;11.50;;;1.57;;
25345;SDS011;13300;51.032;3.710;2022-12-29T06:03:36;7.68;;;1.85;;
25345;SDS011;13300;51.032;3.710;2022-12-29T06:07:03;8.90;;;1.70;;
25345;SDS011;13300;51.032;3.710;2022-12-29T06:09:34;9.77;;;1.70;;
25345;SDS011;13300;51.032;3.710;2022-12-29T06:12:05;10.18;;;1.60;;
25345;SDS011;13300;51.032;3.710;2022-12-29T06:14:35;9.90;;;2.10;;
25345;SDS011;13300;51.032;3.710;2022-12-29T06:17:02;7.75;;;1.70;;
25345;SDS011;13300;51.032;3.710;2022-12-29T06:27:10;12.25;;;2.45;;
25345;SDS011;13300;51.032;3.710;2022-12-29T06:30:43;8.40;;;1.50;;
25345;SDS011;13300;51.032;3.710;2022-12-29T06:33:56;7.63;;;1.65;;
25345;SDS011;13300;51.032;3.710;2022-12-29T06:37:38;11.30;;;2.10;;
25345;SDS011;13300;51.032;3.710;2022-12-29T06:41:06;14.48;;;2.45;;
25345;SDS011;13300;51.032;3.710;2022-12-29T06:55:01;9.50;;;1.88;;
25345;SDS011;13300;51.032;3.710;2022-12-29T06:58:17;11.50;;;1.92;;
25345;SDS011;13300;51.032;3.710;2022-12-29T07:08:50;13.32;;;2.00;;
25345;SDS011;13300;51.032;3.710;2022-12-29T07:15:41;14.05;;;2.42;;
25345;SDS011;13300;51.032;3.710;2022-12-29T07:19:25;15.27;;;2.70;;
25345;SDS011;13300;51.032;3.710;2022-12-29T07:23:03;13.52;;;2.45;;
25345;SDS011;13300;51.032;3.710;2022-12-29T07:47:26;7.75;;;2.13;;
25345;SDS011;13300;51.032;3.710;2022-12-29T07:54:27;8.82;;;2.28;;
25345;SDS011;13300;51.032;3.710;2022-12-29T08:01:19;12.82;;;2.15;;
25345;SDS011;13300;51.032;3.710;2022-12-29T08:04:41;17.85;;;2.63;;
25345;SDS011;13300;51.032;3.710;2022-12-29T08:11:13;13.38;;;2.40;;
25345;SDS011;13300;51.032;3.710;2022-12-29T08:14:39;11.82;;;2.10;;
25345;SDS011;13300;51.032;3.710;2022-12-29T08:21:36;13.45;;;2.28;;
25345;SDS011;13300;51.032;3.710;2022-12-29T08:25:14;15.35;;;2.70;;
25345;SDS011;13300;51.032;3.710;2022-12-29T08:32:26;17.13;;;2.38;;
25345;SDS011;13300;51.032;3.710;2022-12-29T08:50:04;15.65;;;2.20;;
25345;SDS011;13300;51.032;3.710;2022-12-29T08:57:16;17.40;;;2.72;;
25345;SDS011;13300;51.032;3.710;2022-12-29T09:04:29;15.30;;;2.40;;
25345;SDS011;13300;51.032;3.710;2022-12-29T09:08:01;17.67;;;2.78;;
25345;SDS011;13300;51.032;3.710;2022-12-29T09:10:54;12.82;;;2.15;;
25345;SDS011;13300;51.032;3.710;2022-12-29T09:14:18;11.27;;;2.05;;
25345;SDS011;13300;51.032;3.710;2022-12-29T09:21:07;17.08;;;2.63;;
25345;SDS011;13300;51.032;3.710;2022-12-29T09:24:26;22.00;;;2.83;;
25345;SDS011;13300;51.032;3.710;2022-12-29T09:27:40;13.20;;;2.90;;
25345;SDS011;13300;51.032;3.710;2022-12-29T09:30:37;10.93;;;2.65;;
25345;SDS011;13300;51.032;3.710;2022-12-29T09:34:01;24.88;;;3.47;;
25345;SDS011;13300;51.032;3.710;2022-12-29T09:37:12;18.58;;;2.67;;
25345;SDS011;13300;51.032;3.710;2022-12-29T09:40:56;17.13;;;2.58;;
25345;SDS011;13300;51.032;3.710;2022-12-29T09:47:51;16.10;;;3.15;;
25345;SDS011;13300;51.032;3.710;2022-12-29T09:51:21;16.98;;;2.97;;
25345;SDS011;13300;51.032;3.710;2022-12-29T10:04:28;15.85;;;3.25;;
25345;SDS011;13300;51.032;3.710;2022-12-29T10:07:38;19.20;;;2.97;;
25345;SDS011;13300;51.032;3.710;2022-12-29T10:51:38;10.18;;;2.10;;
25345;SDS011;13300;51.032;3.710;2022-12-29T11:22:44;9.98;;;2.00;;
25345;SDS011;13300;51.032;3.710;2022-12-29T11:36:23;14.18;;;2.10;;
25345;SDS011;13300;51.032;3.710;2022-12-29T11:57:18;15.93;;;2.63;;
25345;SDS011;13300;51.032;3.710;2022-12-29T12:03:01;14.50;;;3.00;;
25345;SDS011;13300;51.032;3.710;2022-12-29T12:08:46;19.13;;;2.83;;
25345;SDS011;13300;51.032;3.710;2022-12-29T12:11:34;20.60;;;4.72;;
25345;SDS011;13300;51.032;3.710;2022-12-29T12:14:21;13.88;;;3.05;;
25345;SDS011;13300;51.032;3.710;2022-12-29T12:17:02;19.88;;;3.38;;
25345;SDS011;13300;51.032;3.710;2022-12-29T12:29:01;10.27;;;2.05;;
25345;SDS011;13300;51.032;3.710;2022-12-29T13:02:48;9.68;;;1.75;;
25345;SDS011;13300;51.032;3.710;2022-12-29T13:05:09;10.77;;;2.03;;
25345;SDS011;13300;51.032;3.710;2022-12-29T13:28:44;8.23;;;1.27;;
25345;SDS011;13300;51.032;3.710;2022-12-29T13:39:05;6.30;;;1.00;;
25345;SDS011;13300;51.032;3.710;2022-12-29T13:42:42;7.18;;;1.38;;
25345;SDS011;13300;51.032;3.710;2022-12-29T13:46:21;4.57;;;1.00;;
25345;SDS011;13300;51.032;3.710;2022-12-29T13:53:06;5.20;;;0.82;;
25345;SDS011;13300;51.032;3.710;2022-12-29T14:03:57;6.05;;;1.23;;
25345;SDS011;13300;51.032;3.710;2022-12-29T14:10:55;5.10;;;1.05;;
25345;SDS011;13300;51.032;3.710;2022-12-29T14:20:01;4.35;;;1.20;;
25345;SDS011;13300;51.032;3.710;2022-12-29T14:37:36;4.07;;;0.93;;
25345;SDS011;13300;51.032;3.710;2022-12-29T15:02:01;6.85;;;1.50;;
25345;SDS011;13300;51.032;3.710;2022-12-29T15:23:14;14.63;;;2.92;;
25345;SDS011;13300;51.032;3.710;2022-12-29T15:37:26;8.18;;;2.00;;
25345;SDS011;13300;51.032;3.710;2022-12-29T15:54:16;7.97;;;2.13;;
25345;SDS011;13300;51.032;3.710;2022-12-29T15:57:45;11.30;;;2.38;;
25345;SDS011;13300;51.032;3.710;2022-12-29T16:00:54;12.40;;;2.72;;
25345;SDS011;13300;51.032;3.710;2022-12-29T16:04:08;18.02;;;2.88;;
25345;SDS011;13300;51.032;3.710;2022-12-29T16:07:01;9.93;;;2.70;;
25345;SDS011;13300;51.032;3.710;2022-12-29T16:09:58;11.85;;;2.40;;
25345;SDS011;13300;51.032;3.710;2022-12-29T16:16:25;10.70;;;2.42;;
25345;SDS011;13300;51.032;3.710;2022-12-29T16:25:59;12.90;;;2.40;;
25345;SDS011;13300;51.032;3.710;2022-12-29T16:28:55;17.85;;;3.03;;
25345;SDS011;13300;51.032;3.710;2022-12-29T16:32:24;17.00;;;2.50;;
25345;SDS011;13300;51.032;3.710;2022-12-29T16:41:50;12.68;;;3.10;;
25345;SDS011;13300;51.032;3.710;2022-12-29T16:45:20;15.95;;;2.95;;
25345;SDS011;13300;51.032;3.710;2022-12-29T16:48:55;13.68;;;2.80;;
25345;SDS011;13300;51.032;3.710;2022-12-29T16:51:37;18.70;;;2.78;;
25345;SDS011;13300;51.032;3.710;2022-12-29T16:54:06;21.35;;;3.33;;
25345;SDS011;13300;51.032;3.710;2022-12-29T16:57:07;17.15;;;3.60;;
25345;SDS011;13300;51.032;3.710;2022-12-29T17:00:04;17.67;;;3.28;;
25345;SDS011;13300;51.032;3.710;2022-12-29T17:02:40;17.05;;;3.55;;
25345;SDS011;13300;51.032;3.710;2022-12-29T17:05:14;14.50;;;3.55;;
25345;SDS011;13300;51.032;3.710;2022-12-29T17:10:53;21.65;;;3.47;;
25345;SDS011;13300;51.032;3.710;2022-12-29T17:16:08;16.30;;;3.28;;
25345;SDS011;13300;51.032;3.710;2022-12-29T17:18:37;21.48;;;3.38;;
25345;SDS011;13300;51.032;3.710;2022-12-29T17:21:07;18.60;;;3.78;;
25345;SDS011;13300;51.032;3.710;2022-12-29T17:24:01;14.02;;;3.03;;
25345;SDS011;13300;51.032;3.710;2022-12-29T17:26:54;18.90;;;3.05;;
25345;SDS011;13300;51.032;3.710;2022-12-29T17:29:31;16.63;;;2.97;;
25345;SDS011;13300;51.032;3.710;2022-12-29T17:32:03;20.25;;;3.65;;
25345;SDS011;13300;51.032;3.710;2022-12-29T17:35:31;20.55;;;3.33;;
25345;SDS011;13300;51.032;3.710;2022-12-29T17:38:54;17.40;;;3.00;;
25345;SDS011;13300;51.032;3.710;2022-12-29T17:42:22;16.05;;;2.80;;
25345;SDS011;13300;51.032;3.710;2022-12-29T17:44:51;17.00;;;2.67;;
25345;SDS011;13300;51.032;3.710;2022-12-29T17:48:27;13.80;;;3.22;;
25345;SDS011;13300;51.032;3.710;2022-12-29T18:05:52;13.95;;;3.28;;
25345;SDS011;13300;51.032;3.710;2022-12-29T18:12:48;12.93;;;2.50;;
25345;SDS011;13300;51.032;3.710;2022-12-29T18:16:14;11.48;;;1.92;;
25345;SDS011;13300;51.032;3.710;2022-12-29T18:19:35;12.15;;;2.65;;
25345;SDS011;13300;51.032;3.710;2022-12-29T18:26:12;15.52;;;3.00;;
25345;SDS011;13300;51.032;3.710;2022-12-29T18:36:37;11.13;;;2.40;;
25345;SDS011;13300;51.032;3.710;2022-12-29T18:47:00;8.90;;;2.08;;
25345;SDS011;13300;51.032;3.710;2022-12-29T18:57:28;11.30;;;2.17;;
25345;SDS011;13300;51.032;3.710;2022-12-29T19:00:37;9.70;;;1.90;;
25345;SDS011;13300;51.032;3.710;2022-12-29T19:17:29;12.50;;;2.00;;
25345;SDS011;13300;51.032;3.710;2022-12-29T19:20:36;12.75;;;2.15;;
25345;SDS011;13300;51.032;3.710;2022-12-29T19:23:36;9.65;;;1.90;;
25345;SDS011;13300;51.032;3.710;2022-12-29T19:30:02;9.20;;;2.50;;
25345;SDS011;13300;51.032;3.710;2022-12-29T19:33:00;11.18;;;2.13;;
25345;SDS011;13300;51.032;3.710;2022-12-29T19:36:50;17.33;;;2.40;;
25345;SDS011;13300;51.032;3.710;2022-12-29T19:40:20;11.57;;;2.30;;
25345;SDS011;13300;51.032;3.710;2022-12-29T19:43:50;10.93;;;2.20;;
25345;SDS011;13300;51.032;3.710;2022-12-29T19:47:20;8.98;;;2.45;;
25345;SDS011;13300;51.032;3.710;2022-12-29T19:50:31;8.70;;;2.13;;
25345;SDS011;13300;51.032;3.710;2022-12-29T19:54:18;15.35;;;3.10;;
25345;SDS011;13300;51.032;3.710;2022-12-29T19:57:14;14.73;;;2.50;;
25345;SDS011;13300;51.032;3.710;2022-12-29T20:01:02;12.10;;;2.85;;
25345;SDS011;13300;51.032;3.710;2022-12-29T20:04:29;12.13;;;2.90;;
25345;SDS011;13300;51.032;3.710;2022-12-29T20:11:11;15.90;;;2.80;;
25345;SDS011;13300;51.032;3.710;2022-12-29T20:14:44;15.30;;;3.28;;
25345;SDS011;13300;51.032;3.710;2022-12-29T20:24:09;17.85;;;3.17;;
25345;SDS011;13300;51.032;3.710;2022-12-29T20:27:21;18.83;;;3.15;;
25345;SDS011;13300;51.032;3.710;2022-12-29T20:30:42;15.07;;;3.00;;
25345;SDS011;13300;51.032;3.710;2022-12-29T20:33:54;15.65;;;2.92;;
25345;SDS011;13300;51.032;3.710;2022-12-29T20:37:21;12.23;;;3.13;;
25345;SDS011;13300;51.032;3.710;2022-12-29T20:47:39;11.45;;;2.30;;
25345;SDS011;13300;51.032;3.710;2022-12-29T20:51:04;14.90;;;3.00;;
25345;SDS011;13300;51.032;3.710;2022-12-29T20:58:04;10.70;;;2.80;;
25345;SDS011;13300;51.032;3.710;2022-12-29T21:00:32;10.80;;;2.28;;
25345;SDS011;13300;51.032;3.710;2022-12-29T21:03:19;12.60;;;2.55;;
25345;SDS011;13300;51.032;3.710;2022-12-29T21:06:05;15.25;;;2.72;;
25345;SDS011;13300;51.032;3.710;2022-12-29T21:08:46;13.70;;;2.78;;
25345;SDS011;13300;51.032;3.710;2022-12-29T21:11:18;11.98;;;2.38;;
25345;SDS011;13300;51.032;3.710;2022-12-29T21:14:06;13.45;;;2.50;;
25345;SDS011;13300;51.032;3.710;2022-12-29T21:16:33;13.18;;;2.85;;
25345;SDS011;13300;51.032;3.710;2022-12-29T21:19:02;11.32;;;2.20;;
25345;SDS011;13300;51.032;3.710;2022-12-29T21:21:30;15.93;;;3.35;;
25345;SDS011;13300;51.032;3.710;2022-12-29T21:23:56;11.18;;;2.67;;
25345;SDS011;13300;51.032;3.710;2022-12-29T21:26:29;14.65;;;2.72;;
25345;SDS011;13300;51.032;3.710;2022-12-29T21:28:56;8.55;;;2.45;;
25345;SDS011;13300;51.032;3.710;2022-12-29T21:31:25;11.63;;;2.30;;
25345;SDS011;13300;51.032;3.710;2022-12-29T21:34:00;14.50;;;2.47;;
25345;SDS011;13300;51.032;3.710;2022-12-29T21:36:27;10.20;;;2.55;;
25345;SDS011;13300;51.032;3.710;2022-12-29T21:38:54;14.65;;;2.63;;
25345;SDS011;13300;51.032;3.710;2022-12-29T21:41:23;12.13;;;2.63;;
25345;SDS011;13300;51.032;3.710;2022-12-29T21:43:51;15.48;;;2.90;;
25345;SDS011;13300;51.032;3.710;2022-12-29T21:46:39;12.13;;;2.40;;
25345;SDS011;13300;51.032;3.710;2022-12-29T21:49:07;9.85;;;2.65;;
25345;SDS011;13300;51.032;3.710;2022-12-29T21:51:39;14.07;;;2.65;;
25345;SDS011;13300;51.032;3.710;2022-12-29T21:54:24;12.43;;;2.65;;
25345;SDS011;13300;51.032;3.710;2022-12-29T22:00:24;9.10;;;2.20;;
25345;SDS011;13300;51.032;3.710;2022-12-29T22:03:23;12.43;;;2.67;;
25345;SDS011;13300;51.032;3.710;2022-12-29T22:06:31;17.75;;;2.78;;
25345;SDS011;13300;51.032;3.710;2022-12-29T22:09:18;10.82;;;2.53;;
25345;SDS011;13300;51.032;3.710;2022-12-29T22:12:08;12.48;;;2.58;;
25345;SDS011;13300;51.032;3.710;2022-12-29T22:14:55;9.82;;;2.30;;
25345;SDS011;13300;51.032;3.710;2022-12-29T22:17:26;10.18;;;2.17;;
25345;SDS011;13300;51.032;3.710;2022-12-29T22:20:25;10.95;;;2.53;;
25345;SDS011;13300;51.032;3.710;2022-12-29T22:23:07;10.38;;;2.30;;
25345;SDS011;13300;51.032;3.710;2022-12-29T22:25:54;8.80;;;2.00;;
25345;SDS011;13300;51.032;3.710;2022-12-29T22:28:19;7.63;;;1.98;;
25345;SDS011;13300;51.032;3.710;2022-12-29T22:30:50;6.57;;;1.88;;
25345;SDS011;13300;51.032;3.710;2022-12-29T22:33:26;10.10;;;1.98;;
25345;SDS011;13300;51.032;3.710;2022-12-29T22:35:57;9.73;;;2.50;;
25345;SDS011;13300;51.032;3.710;2022-12-29T22:38:39;12.77;;;2.30;;
25345;SDS011;13300;51.032;3.710;2022-12-29T22:41:16;5.95;;;2.28;;
25345;SDS011;13300;51.032;3.710;2022-12-29T22:43:48;10.73;;;1.85;;
25345;SDS011;13300;51.032;3.710;2022-12-29T22:46:34;9.80;;;2.15;;
25345;SDS011;13300;51.032;3.710;2022-12-29T22:49:03;9.75;;;2.20;;
25345;SDS011;13300;51.032;3.710;2022-12-29T22:51:52;11.35;;;1.92;;
25345;SDS011;13300;51.032;3.710;2022-12-29T22:54:26;14.35;;;2.55;;
25345;SDS011;13300;51.032;3.710;2022-12-29T22:57:22;9.73;;;2.58;;
25345;SDS011;13300;51.032;3.710;2022-12-29T22:59:48;13.50;;;2.33;;
25345;SDS011;13300;51.032;3.710;2022-12-29T23:02:17;13.13;;;2.55;;
25345;SDS011;13300;51.032;3.710;2022-12-29T23:04:59;13.25;;;3.08;;
25345;SDS011;13300;51.032;3.710;2022-12-29T23:07:34;12.05;;;3.15;;
25345;SDS011;13300;51.032;3.710;2022-12-29T23:12:54;13.27;;;3.30;;
25345;SDS011;13300;51.032;3.710;2022-12-29T23:15:33;17.98;;;3.10;;
25345;SDS011;13300;51.032;3.710;2022-12-29T23:18:01;17.58;;;3.08;;
25345;SDS011;13300;51.032;3.710;2022-12-29T23:20:44;12.00;;;3.47;;
25345;SDS011;13300;51.032;3.710;2022-12-29T23:23:39;16.55;;;3.08;;
25345;SDS011;13300;51.032;3.710;2022-12-29T23:26:36;21.50;;;3.33;;
25345;SDS011;13300;51.032;3.710;2022-12-29T23:29:05;17.13;;;3.10;;
25345;SDS011;13300;51.032;3.710;2022-12-29T23:31:36;13.18;;;3.15;;
25345;SDS011;13300;51.032;3.710;2022-12-29T23:34:25;22.60;;;4.53;;
25345;SDS011;13300;51.032;3.710;2022-12-29T23:37:00;13.85;;;3.13;;
25345;SDS011;13300;51.032;3.710;2022-12-29T23:39:35;23.17;;;3.53;;
25345;SDS011;13300;51.032;3.710;2022-12-29T23:42:03;17.13;;;3.08;;
25345;SDS011;13300;51.032;3.710;2022-12-29T23:44:41;13.43;;;2.85;;
25345;SDS011;13300;51.032;3.710;2022-12-29T23:47:19;19.08;;;3.67;;
25345;SDS011;13300;51.032;3.710;2022-12-29T23:50:15;19.38;;;3.50;;
25345;SDS011;13300;51.032;3.710;2022-12-29T23:52:44;16.35;;;3.00;;
25345;SDS011;13300;51.032;3.710;2022-12-29T23:55:10;17.33;;;3.95;;
25345;SDS011;13300;51.032;3.710;2022-12-29T23:57:39;18.25;;;3.60;;
